KPIE

St. Petersburg-Clearwater International Airport

Airport
ICAO code
KPIE
Summary
ICAO Region
NAM
ICAO Territory
Location

St. Petersburg, Florida,

Coordinates
27° 54' 33" N , 82° 41' 18" W
KCC
Metar
KPIE 142353Z 31007KT 10SM CLR 21/13 A3010 RMK AO2 SLP194 T02110133 10283 20211 56006

Description

St. Petersburg–Clearwater International Airport is a public and military (USCG) use airport located in Pinellas County, Florida. It is 15 km north of the central business district of St. Petersburg and 11 km southeast of Clearwater.

Climatology

Humid “subtropical” climate (Köppen climate classification Cfa) - characterized by hot, humid summers and cool winters. Significant amounts of precipitation occur in all seasons in most areas.

Runways

Designator Length Width Surface Rops
17R/35L 1219 23 ASP Yes/Yes
9/27 1574 46 ASP Yes/Yes
4/22 1676 46 ASP Yes/Yes
17L/35R 2682 46 ASP Yes/Yes

Airport map

Aerial View

SKYbrary Partners:

Safety knowledge contributed by: